createdAt,value
2017-10-17T00:00:01.443Z,17.05
2017-10-17T00:01:01.460Z,17.08
2017-10-17T00:02:01.481Z,17.04
2017-10-17T00:03:01.507Z,17.02
2017-10-17T00:04:01.527Z,17.14
2017-10-17T00:05:01.572Z,17.04
2017-10-17T00:06:01.907Z,17.01
2017-10-17T00:07:01.592Z,16.97
2017-10-17T00:08:01.622Z,16.94
2017-10-17T00:09:01.643Z,17.02
2017-10-17T00:10:01.665Z,16.94
2017-10-17T00:11:01.681Z,17.01
2017-10-17T00:12:01.708Z,17.02
2017-10-17T00:13:01.740Z,16.99
2017-10-17T00:14:01.753Z,16.99
2017-10-17T00:15:01.774Z,16.93
2017-10-17T00:16:02.999Z,16.86
2017-10-17T00:17:01.821Z,16.79
2017-10-17T00:18:01.839Z,16.87
2017-10-17T00:19:01.865Z,16.76
2017-10-17T00:20:01.895Z,16.69
2017-10-17T00:21:01.909Z,16.74
2017-10-17T00:22:01.933Z,16.69
2017-10-17T00:23:01.956Z,16.69
2017-10-17T00:24:01.986Z,16.72
2017-10-17T00:25:01.997Z,16.66
2017-10-17T00:26:02.025Z,16.61
2017-10-17T00:27:02.048Z,16.58
2017-10-17T00:28:02.060Z,16.57
2017-10-17T00:29:02.083Z,16.71
2017-10-17T00:30:02.130Z,16.6
2017-10-17T00:31:02.128Z,16.68
2017-10-17T00:32:02.153Z,16.66
2017-10-17T00:33:02.171Z,16.65
2017-10-17T00:34:02.207Z,16.58
2017-10-17T00:35:02.221Z,16.56
2017-10-17T00:36:02.295Z,16.56
2017-10-17T00:37:02.264Z,16.56
2017-10-17T00:38:02.293Z,16.53
2017-10-17T00:39:02.305Z,16.47
2017-10-17T00:40:02.329Z,16.51
2017-10-17T00:41:02.695Z,16.47
2017-10-17T00:42:02.375Z,16.47
2017-10-17T00:43:02.400Z,16.43
2017-10-17T00:44:02.419Z,16.42
2017-10-17T00:45:02.445Z,16.39
2017-10-17T00:46:02.465Z,16.23
2017-10-17T00:47:02.489Z,16.26
2017-10-17T00:48:02.513Z,16.21
2017-10-17T00:49:02.536Z,16.21
2017-10-17T00:50:02.547Z,16.1
2017-10-17T00:51:02.623Z,16.12
2017-10-17T00:52:02.599Z,16.09
2017-10-17T00:53:03.822Z,16.05
2017-10-17T00:54:02.631Z,15.98
2017-10-17T00:55:02.655Z,15.94
2017-10-17T00:56:02.678Z,15.98
2017-10-17T00:57:02.701Z,15.92
2017-10-17T00:58:02.721Z,15.91
2017-10-17T00:59:02.751Z,16
2017-10-17T01:00:02.765Z,15.97
2017-10-17T01:01:02.792Z,15.86
2017-10-17T01:02:02.808Z,15.8
2017-10-17T01:03:02.836Z,15.79
2017-10-17T01:04:02.855Z,15.79
2017-10-17T01:05:02.875Z,15.95
2017-10-17T01:06:02.945Z,15.86
2017-10-17T01:07:02.916Z,15.79
2017-10-17T01:08:02.942Z,15.82
2017-10-17T01:09:03.289Z,15.75
2017-10-17T01:10:02.990Z,15.77
2017-10-17T01:11:03.012Z,15.77
2017-10-17T01:12:03.025Z,15.67
2017-10-17T01:13:03.048Z,15.65
2017-10-17T01:14:03.074Z,15.72
2017-10-17T01:15:03.093Z,15.67
2017-10-17T01:16:03.484Z,15.76
2017-10-17T01:17:03.132Z,15.67
2017-10-17T01:18:03.157Z,15.62
2017-10-17T01:19:03.179Z,15.68
2017-10-17T01:20:03.199Z,15.73
2017-10-17T01:21:03.216Z,15.75
2017-10-17T01:22:03.246Z,15.75
2017-10-17T01:23:03.283Z,15.67
2017-10-17T01:24:03.289Z,15.67
2017-10-17T01:25:03.305Z,15.67
2017-10-17T01:26:03.327Z,15.79
2017-10-17T01:27:03.354Z,15.86
2017-10-17T01:28:03.368Z,15.8
2017-10-17T01:29:03.402Z,15.7
2017-10-17T01:30:03.422Z,15.76
2017-10-17T01:31:03.437Z,15.77
2017-10-17T01:32:04.436Z,15.75
2017-10-17T01:33:03.493Z,15.73
2017-10-17T01:34:03.496Z,15.73
2017-10-17T01:35:03.526Z,15.79
2017-10-17T01:36:03.543Z,15.73
2017-10-17T01:37:03.570Z,15.77
2017-10-17T01:38:03.604Z,15.76
2017-10-17T01:39:04.005Z,15.7
2017-10-17T01:40:03.640Z,15.82
2017-10-17T01:41:03.650Z,15.76
2017-10-17T01:42:03.672Z,15.7
2017-10-17T01:43:03.696Z,15.55
2017-10-17T01:44:03.715Z,15.35
2017-10-17T01:45:03.740Z,15.35
2017-10-17T01:46:03.764Z,15.39
2017-10-17T01:47:03.817Z,15.43
2017-10-17T01:48:03.800Z,15.4
2017-10-17T01:49:03.822Z,15.42
2017-10-17T01:50:03.845Z,15.4
2017-10-17T01:51:03.867Z,15.39
2017-10-17T01:52:03.927Z,15.35
2017-10-17T01:53:03.914Z,15.29
2017-10-17T01:54:03.933Z,15.18
2017-10-17T01:55:03.956Z,15.19
2017-10-17T01:56:03.972Z,15.29
2017-10-17T01:57:04.001Z,15.36
2017-10-17T01:58:04.070Z,15.33
2017-10-17T01:59:04.033Z,15.36
2017-10-17T02:00:04.055Z,15.33
2017-10-17T02:01:04.077Z,15.22
2017-10-17T02:02:04.432Z,15.19
2017-10-17T02:03:04.126Z,15.24
2017-10-17T02:04:04.217Z,15.21
2017-10-17T02:05:04.169Z,15.19
2017-10-17T02:06:04.190Z,15.11
2017-10-17T02:07:04.235Z,15.03
2017-10-17T02:08:04.225Z,15.03
2017-10-17T02:09:04.580Z,15.04
2017-10-17T02:10:04.272Z,15.11
2017-10-17T02:11:04.293Z,15.07
2017-10-17T02:12:04.318Z,15.19
2017-10-17T02:13:04.396Z,15.27
2017-10-17T02:14:04.351Z,15.24
2017-10-17T02:15:04.384Z,15.19
2017-10-17T02:16:04.398Z,15.29
2017-10-17T02:17:04.414Z,15.18
2017-10-17T02:18:04.508Z,15.24
2017-10-17T02:19:04.462Z,15.19
2017-10-17T02:20:04.483Z,15.17
2017-10-17T02:21:04.497Z,15.18
2017-10-17T02:22:04.524Z,15.18
2017-10-17T02:23:04.586Z,15.22
2017-10-17T02:24:04.574Z,15.17
2017-10-17T02:25:04.604Z,15.18
2017-10-17T02:26:04.687Z,15.14
2017-10-17T02:27:04.653Z,15.25
2017-10-17T02:28:05.038Z,15.21
2017-10-17T02:29:04.678Z,15.21
2017-10-17T02:30:04.696Z,15.29
2017-10-17T02:31:04.713Z,15.22
2017-10-17T02:32:04.735Z,15.25
2017-10-17T02:33:04.761Z,15.27
2017-10-17T02:34:04.789Z,15.21
2017-10-17T02:35:04.797Z,15.24
2017-10-17T02:36:04.823Z,15.18
2017-10-17T02:37:04.839Z,15.27
2017-10-17T02:38:04.860Z,15.25
2017-10-17T02:39:04.884Z,15.18
2017-10-17T02:40:04.979Z,15.14
2017-10-17T02:41:04.930Z,15.11
2017-10-17T02:42:04.951Z,15.14
2017-10-17T02:43:04.978Z,15.09
2017-10-17T02:44:04.993Z,15.07
2017-10-17T02:45:05.034Z,15.1
2017-10-17T02:46:05.039Z,15.06
2017-10-17T02:47:05.058Z,15.15
2017-10-17T02:48:05.076Z,15.03
2017-10-17T02:49:05.102Z,15.02
2017-10-17T02:50:05.123Z,14.94
2017-10-17T02:51:05.143Z,14.99
2017-10-17T02:52:05.159Z,14.85
2017-10-17T02:53:05.178Z,15
2017-10-17T02:54:05.198Z,15.03
2017-10-17T02:55:05.228Z,15.03
2017-10-17T02:56:05.247Z,15.03
2017-10-17T02:57:05.292Z,15
2017-10-17T02:58:05.301Z,15.07
2017-10-17T02:59:05.310Z,15.07
2017-10-17T03:00:05.418Z,15.03
2017-10-17T03:01:05.348Z,15.06
2017-10-17T03:02:05.757Z,14.96
2017-10-17T03:03:05.391Z,15
2017-10-17T03:04:05.416Z,14.91
2017-10-17T03:05:05.436Z,14.92
2017-10-17T03:06:05.466Z,14.86
2017-10-17T03:07:05.476Z,14.84
2017-10-17T03:08:05.498Z,14.78
2017-10-17T03:09:05.539Z,14.81
2017-10-17T03:10:05.550Z,14.72
2017-10-17T03:11:05.629Z,14.84
2017-10-17T03:12:05.580Z,14.79
2017-10-17T03:13:05.603Z,14.72
2017-10-17T03:14:05.625Z,14.77
2017-10-17T03:15:05.974Z,14.84
2017-10-17T03:16:05.671Z,14.82
2017-10-17T03:17:05.687Z,14.73
2017-10-17T03:18:05.725Z,14.81
2017-10-17T03:19:05.748Z,14.84
2017-10-17T03:20:05.827Z,14.84
2017-10-17T03:21:05.823Z,14.85
2017-10-17T03:22:05.881Z,14.81
2017-10-17T03:23:05.816Z,14.84
2017-10-17T03:24:05.847Z,14.82
2017-10-17T03:25:05.865Z,14.79
2017-10-17T03:26:05.886Z,14.72
2017-10-17T03:27:06.226Z,14.81
2017-10-17T03:28:05.956Z,14.84
2017-10-17T03:29:05.952Z,14.7
2017-10-17T03:30:05.968Z,14.73
2017-10-17T03:31:05.990Z,14.82
2017-10-17T03:32:06.125Z,14.82
2017-10-17T03:33:06.683Z,14.88
2017-10-17T03:34:06.204Z,14.88
2017-10-17T03:35:06.074Z,14.77
2017-10-17T03:36:06.090Z,14.78
2017-10-17T03:37:06.115Z,14.77
2017-10-17T03:38:06.137Z,14.78
2017-10-17T03:39:06.151Z,14.73
2017-10-17T03:40:06.179Z,14.7
2017-10-17T03:41:06.533Z,14.79
2017-10-17T03:42:06.319Z,14.72
2017-10-17T03:43:06.235Z,14.59
2017-10-17T03:44:06.268Z,14.63
2017-10-17T03:45:06.287Z,14.62
2017-10-17T03:46:06.692Z,14.63
2017-10-17T03:47:06.329Z,14.77
2017-10-17T03:48:06.381Z,14.72
2017-10-17T03:49:06.369Z,14.48
2017-10-17T03:50:06.392Z,14.58
2017-10-17T03:51:06.407Z,14.55
2017-10-17T03:52:06.428Z,14.54
2017-10-17T03:53:06.476Z,14.59
2017-10-17T03:54:06.468Z,14.62
2017-10-17T03:55:06.512Z,14.65
2017-10-17T03:56:06.883Z,14.6
2017-10-17T03:57:06.535Z,14.65
2017-10-17T03:58:06.634Z,14.63
2017-10-17T03:59:06.571Z,14.69
2017-10-17T04:00:06.600Z,14.7
2017-10-17T04:01:06.612Z,14.69
2017-10-17T04:02:06.630Z,14.73
2017-10-17T04:03:07.143Z,14.78
2017-10-17T04:04:06.678Z,14.7
2017-10-17T04:05:06.695Z,14.72
2017-10-17T04:06:06.720Z,14.72
2017-10-17T04:07:06.736Z,14.78
2017-10-17T04:08:06.756Z,14.66
2017-10-17T04:09:06.837Z,14.63
2017-10-17T04:10:06.800Z,14.62
2017-10-17T04:11:06.820Z,14.54
2017-10-17T04:12:06.841Z,14.54
2017-10-17T04:13:06.870Z,14.5
2017-10-17T04:14:07.030Z,14.55
2017-10-17T04:15:06.907Z,14.51
2017-10-17T04:16:06.929Z,14.55
2017-10-17T04:17:06.950Z,14.51
2017-10-17T04:18:06.965Z,14.51
2017-10-17T04:19:07.319Z,14.45
2017-10-17T04:20:07.012Z,14.54
2017-10-17T04:21:07.030Z,14.53
2017-10-17T04:22:07.374Z,14.59
2017-10-17T04:23:07.075Z,14.63
2017-10-17T04:24:07.226Z,14.72
2017-10-17T04:25:07.114Z,14.7
2017-10-17T04:26:07.178Z,14.69
2017-10-17T04:27:07.158Z,14.6
2017-10-17T04:28:07.225Z,14.77
2017-10-17T04:29:07.194Z,14.73
2017-10-17T04:30:07.221Z,14.65
2017-10-17T04:31:07.443Z,14.55
2017-10-17T04:32:07.334Z,14.53
2017-10-17T04:33:07.286Z,14.55
2017-10-17T04:34:07.623Z,14.62
2017-10-17T04:35:07.462Z,14.58
2017-10-17T04:36:07.361Z,14.51
2017-10-17T04:37:07.367Z,14.55
2017-10-17T04:38:07.389Z,14.59
2017-10-17T04:39:07.730Z,14.6
2017-10-17T04:40:07.422Z,14.59
2017-10-17T04:41:07.576Z,14.6
2017-10-17T04:42:07.471Z,14.63
2017-10-17T04:43:07.493Z,14.6
2017-10-17T04:44:07.513Z,14.62
2017-10-17T04:45:07.932Z,14.51
2017-10-17T04:46:07.562Z,14.5
2017-10-17T04:47:07.572Z,14.59
2017-10-17T04:48:07.593Z,14.47
2017-10-17T04:49:07.620Z,14.44
2017-10-17T04:50:07.639Z,14.37
2017-10-17T04:51:07.660Z,14.47
2017-10-17T04:52:08.007Z,14.62
2017-10-17T04:53:07.700Z,14.53
2017-10-17T04:54:07.725Z,14.58
2017-10-17T04:55:07.741Z,14.45
2017-10-17T04:56:07.764Z,14.37
2017-10-17T04:57:07.787Z,14.4
2017-10-17T04:58:07.850Z,14.35
2017-10-17T04:59:07.827Z,14.5
2017-10-17T05:00:07.844Z,14.54
2017-10-17T05:01:07.869Z,14.55
2017-10-17T05:02:07.885Z,14.55
2017-10-17T05:03:07.912Z,14.59
2017-10-17T05:04:07.927Z,14.58
2017-10-17T05:05:08.170Z,14.51
2017-10-17T05:06:07.983Z,14.48
2017-10-17T05:07:07.994Z,14.48
2017-10-17T05:08:08.016Z,14.54
2017-10-17T05:09:08.036Z,14.43
2017-10-17T05:10:08.159Z,14.37
2017-10-17T05:11:08.076Z,14.3
2017-10-17T05:12:08.097Z,14.35
2017-10-17T05:13:08.116Z,14.3
2017-10-17T05:14:08.149Z,14.36
2017-10-17T05:15:08.510Z,14.36
2017-10-17T05:16:08.298Z,14.35
2017-10-17T05:17:08.317Z,14.43
2017-10-17T05:18:08.222Z,14.47
2017-10-17T05:19:08.568Z,14.51
2017-10-17T05:20:08.511Z,14.48
2017-10-17T05:21:08.341Z,14.4
2017-10-17T05:22:08.307Z,14.36
2017-10-17T05:23:08.329Z,14.29
2017-10-17T05:24:08.355Z,14.29
2017-10-17T05:25:08.371Z,14.28
2017-10-17T05:26:08.596Z,14.25
2017-10-17T05:27:08.421Z,14.14
2017-10-17T05:28:08.464Z,14.17
2017-10-17T05:29:08.776Z,14.05
2017-10-17T05:30:08.650Z,14.08
2017-10-17T05:31:08.502Z,14.17
2017-10-17T05:32:08.528Z,14.18
2017-10-17T05:33:08.861Z,14.04
2017-10-17T05:34:08.559Z,13.95
2017-10-17T05:35:08.592Z,13.99
2017-10-17T05:36:08.652Z,13.99
2017-10-17T05:37:08.954Z,13.97
2017-10-17T05:38:08.914Z,14.11
2017-10-17T05:39:08.996Z,14.2
2017-10-17T05:40:08.689Z,14.14
2017-10-17T05:41:08.706Z,14.22
2017-10-17T05:42:08.928Z,14.25
2017-10-17T05:43:08.753Z,14.18
2017-10-17T05:44:08.767Z,14.18
2017-10-17T05:45:09.136Z,14.25
2017-10-17T05:46:08.812Z,14.33
2017-10-17T05:47:08.830Z,14.33
2017-10-17T05:48:08.969Z,14.33
2017-10-17T05:49:08.872Z,14.44
2017-10-17T05:50:09.361Z,14.4
2017-10-17T05:51:08.972Z,14.47
2017-10-17T05:52:08.939Z,14.35
2017-10-17T05:53:08.952Z,14.53
2017-10-17T05:54:08.981Z,14.5
2017-10-17T05:55:09.001Z,14.5
2017-10-17T05:56:09.030Z,14.53
2017-10-17T05:57:09.371Z,14.48
2017-10-17T05:58:09.072Z,14.53
2017-10-17T05:59:09.268Z,14.54
2017-10-17T06:00:09.154Z,14.58
2017-10-17T06:01:09.135Z,14.59
2017-10-17T06:02:09.152Z,14.59
2017-10-17T06:03:09.170Z,14.63
2017-10-17T06:04:09.190Z,14.6
2017-10-17T06:05:09.232Z,14.48
2017-10-17T06:06:09.286Z,14.55
2017-10-17T06:07:09.254Z,14.68
2017-10-17T06:08:09.275Z,14.59
2017-10-17T06:09:09.787Z,14.68
2017-10-17T06:10:09.802Z,14.72
2017-10-17T06:11:09.467Z,14.79
2017-10-17T06:12:09.359Z,14.78
2017-10-17T06:13:09.376Z,14.77
2017-10-17T06:14:09.403Z,14.77
2017-10-17T06:15:09.438Z,14.79
2017-10-17T06:16:09.441Z,14.72
2017-10-17T06:17:09.465Z,14.58
2017-10-17T06:18:09.486Z,14.72
2017-10-17T06:19:09.511Z,14.72
2017-10-17T06:20:09.849Z,14.72
2017-10-17T06:21:09.820Z,14.68
2017-10-17T06:22:10.229Z,14.78
2017-10-17T06:23:09.593Z,14.73
2017-10-17T06:24:09.611Z,14.81
2017-10-17T06:25:09.663Z,14.69
2017-10-17T06:26:09.661Z,14.81
2017-10-17T06:27:10.001Z,14.77
2017-10-17T06:28:09.706Z,14.78
2017-10-17T06:29:10.051Z,14.84
2017-10-17T06:30:09.799Z,14.89
2017-10-17T06:31:09.766Z,14.88
2017-10-17T06:32:09.798Z,14.92
2017-10-17T06:33:09.809Z,14.88
2017-10-17T06:34:09.830Z,14.91
2017-10-17T06:35:09.846Z,14.92
2017-10-17T06:36:09.871Z,14.86
2017-10-17T06:37:09.943Z,14.89
2017-10-17T06:38:09.915Z,14.94
2017-10-17T06:39:09.934Z,14.94
2017-10-17T06:40:10.304Z,14.91
2017-10-17T06:41:10.302Z,14.97
2017-10-17T06:42:09.998Z,15.06
2017-10-17T06:43:10.019Z,15.04
2017-10-17T06:44:10.143Z,15.03
2017-10-17T06:45:10.066Z,15.04
2017-10-17T06:46:10.089Z,15.06
2017-10-17T06:47:10.110Z,15.17
2017-10-17T06:48:10.132Z,15.15
2017-10-17T06:49:10.152Z,15.19
2017-10-17T06:50:10.258Z,15.22
2017-10-17T06:51:10.209Z,15.31
2017-10-17T06:52:10.215Z,15.33
2017-10-17T06:53:10.241Z,15.22
2017-10-17T06:54:10.260Z,15.22
2017-10-17T06:55:10.278Z,15.35
2017-10-17T06:56:10.358Z,15.39
2017-10-17T06:57:10.324Z,15.39
2017-10-17T06:58:10.342Z,15.29
2017-10-17T06:59:10.364Z,15.35
2017-10-17T07:00:10.407Z,15.43
2017-10-17T07:01:10.409Z,15.4
2017-10-17T07:02:10.440Z,15.57
2017-10-17T07:03:10.453Z,15.57
2017-10-17T07:04:10.475Z,15.68
2017-10-17T07:05:10.501Z,15.73
2017-10-17T07:06:10.517Z,15.76
2017-10-17T07:07:10.541Z,15.79
2017-10-17T07:08:10.564Z,15.86
2017-10-17T07:09:10.586Z,15.91
2017-10-17T07:10:11.031Z,16
2017-10-17T07:11:10.678Z,15.98
2017-10-17T07:12:10.975Z,16.1
2017-10-17T07:13:10.672Z,16.13
2017-10-17T07:14:10.695Z,16.23
2017-10-17T07:15:10.727Z,16.29
2017-10-17T07:16:10.740Z,16.38
2017-10-17T07:17:10.764Z,16.39
2017-10-17T07:18:10.785Z,16.39
2017-10-17T07:19:10.801Z,16.54
2017-10-17T07:20:11.426Z,16.58
2017-10-17T07:21:10.849Z,16.57
2017-10-17T07:22:10.882Z,16.53
2017-10-17T07:23:10.912Z,16.53
2017-10-17T07:24:10.913Z,16.68
2017-10-17T07:25:10.940Z,16.66
2017-10-17T07:26:11.014Z,16.76
2017-10-17T07:27:10.983Z,16.83
2017-10-17T07:28:11.011Z,16.96
2017-10-17T07:29:11.030Z,17.04
2017-10-17T07:30:11.064Z,17.14
2017-10-17T07:31:11.080Z,17.2
2017-10-17T07:32:11.423Z,17.26
2017-10-17T07:33:11.121Z,17.31
2017-10-17T07:34:11.152Z,17.31
2017-10-17T07:35:11.163Z,17.23
2017-10-17T07:36:11.192Z,17.38
2017-10-17T07:37:11.216Z,17.41
2017-10-17T07:38:11.246Z,17.49
2017-10-17T07:39:11.257Z,17.48
2017-10-17T07:40:11.281Z,17.57
2017-10-17T07:41:11.308Z,17.56
2017-10-17T07:42:11.330Z,17.7
2017-10-17T07:43:11.360Z,17.68
2017-10-17T07:44:11.374Z,17.74
2017-10-17T07:45:11.393Z,17.74
2017-10-17T07:46:11.424Z,17.7
2017-10-17T07:47:11.451Z,17.8
2017-10-17T07:48:11.468Z,17.95
2017-10-17T07:49:11.491Z,18.01
2017-10-17T07:50:11.515Z,18.11
2017-10-17T07:51:11.878Z,18.18
2017-10-17T07:52:11.888Z,18.25
2017-10-17T07:53:11.590Z,18.33
2017-10-17T07:54:11.611Z,18.35
2017-10-17T07:55:11.639Z,18.56
2017-10-17T07:56:11.681Z,18.43
2017-10-17T07:57:11.677Z,18.38
2017-10-17T07:58:11.706Z,18.43
2017-10-17T07:59:11.729Z,18.6
2017-10-17T08:00:11.802Z,18.71
2017-10-17T08:01:11.777Z,18.75
2017-10-17T08:02:11.793Z,18.74
2017-10-17T08:03:11.824Z,18.8
2017-10-17T08:04:11.842Z,18.81
2017-10-17T08:05:11.870Z,18.83
2017-10-17T08:06:11.895Z,19.02
2017-10-17T08:07:11.922Z,18.95
2017-10-17T08:08:11.938Z,18.99
2017-10-17T08:09:11.968Z,18.99
2017-10-17T08:10:11.982Z,19.12
2017-10-17T08:11:12.007Z,19.18
2017-10-17T08:12:12.030Z,19.19
2017-10-17T08:13:12.054Z,19.34
2017-10-17T08:14:12.078Z,19.39
2017-10-17T08:15:12.104Z,19.34
2017-10-17T08:16:12.128Z,19.49
2017-10-17T08:17:12.155Z,19.54
2017-10-17T08:18:12.177Z,19.56
2017-10-17T08:19:12.254Z,19.7
2017-10-17T08:20:12.231Z,19.73
2017-10-17T08:21:12.256Z,19.92
2017-10-17T08:22:12.596Z,19.99
2017-10-17T08:23:12.298Z,19.96
2017-10-17T08:24:12.325Z,20.09
2017-10-17T08:25:12.348Z,20.24
2017-10-17T08:26:12.810Z,20.22
2017-10-17T08:27:12.391Z,20.41
2017-10-17T08:28:12.760Z,20.52
2017-10-17T08:29:12.450Z,20.55
2017-10-17T08:30:12.475Z,20.67
2017-10-17T08:31:12.497Z,20.72
2017-10-17T08:32:12.531Z,20.78
2017-10-17T08:33:12.574Z,20.9
2017-10-17T08:34:12.569Z,20.92
2017-10-17T08:35:12.604Z,21
2017-10-17T08:36:12.620Z,20.97
2017-10-17T08:37:12.691Z,21.03
2017-10-17T08:38:12.666Z,21.12
2017-10-17T08:39:12.695Z,21.18
2017-10-17T08:40:12.719Z,21.3
2017-10-17T08:41:12.754Z,21.42
2017-10-17T08:42:12.766Z,21.52
2017-10-17T08:43:12.793Z,21.61
2017-10-17T08:44:12.827Z,21.73
2017-10-17T08:45:13.187Z,21.79
2017-10-17T08:46:12.887Z,21.67
2017-10-17T08:47:13.219Z,21.8
2017-10-17T08:48:12.929Z,21.91
2017-10-17T08:49:12.949Z,21.98
2017-10-17T08:50:12.979Z,22.04
2017-10-17T08:51:12.999Z,22.1
2017-10-17T08:52:13.077Z,21.99
2017-10-17T08:53:13.048Z,22.1
2017-10-17T08:54:13.098Z,22.13
2017-10-17T08:55:13.140Z,22.14
2017-10-17T08:56:13.211Z,22.22
2017-10-17T08:57:13.159Z,22.33
2017-10-17T08:58:13.177Z,22.29
2017-10-17T08:59:13.204Z,22.33
2017-10-17T09:00:13.293Z,22.43
2017-10-17T09:01:13.288Z,22.51
2017-10-17T09:02:13.289Z,22.59
2017-10-17T09:03:13.304Z,22.53
2017-10-17T09:04:13.342Z,22.65
2017-10-17T09:05:13.361Z,22.7
2017-10-17T09:06:13.383Z,22.75
2017-10-17T09:07:13.417Z,22.83
2017-10-17T09:08:13.438Z,22.84
2017-10-17T09:09:13.511Z,22.76
2017-10-17T09:10:13.485Z,22.91
2017-10-17T09:11:13.861Z,23.06
2017-10-17T09:12:13.541Z,23.12
2017-10-17T09:13:13.649Z,23.21
2017-10-17T09:14:13.599Z,23.24
2017-10-17T09:15:13.628Z,23.27
2017-10-17T09:16:13.642Z,23.37
2017-10-17T09:17:13.671Z,23.27
2017-10-17T09:18:13.696Z,23.32
2017-10-17T09:19:13.727Z,23.32
2017-10-17T09:20:13.746Z,23.48
2017-10-17T09:21:13.778Z,23.58
2017-10-17T09:22:13.825Z,23.58
2017-10-17T09:23:13.827Z,23.54
2017-10-17T09:24:13.907Z,23.58
2017-10-17T09:25:13.880Z,23.58
2017-10-17T09:26:13.907Z,23.56
2017-10-17T09:27:14.257Z,23.59
2017-10-17T09:28:13.961Z,23.71
2017-10-17T09:29:14.001Z,23.71
2017-10-17T09:30:14.011Z,23.71
2017-10-17T09:31:14.055Z,23.8
2017-10-17T09:32:14.068Z,23.76
2017-10-17T09:33:14.092Z,23.91
2017-10-17T09:34:14.125Z,23.86
2017-10-17T09:35:14.149Z,23.92
2017-10-17T09:36:14.174Z,23.98
2017-10-17T09:37:14.201Z,23.93
2017-10-17T09:38:14.231Z,24.1
2017-10-17T09:39:14.304Z,24.06
2017-10-17T09:40:14.285Z,24.1
2017-10-17T09:41:14.309Z,24.1
2017-10-17T09:42:14.338Z,24.23
2017-10-17T09:43:14.370Z,24.24
2017-10-17T09:44:14.395Z,24.28
2017-10-17T09:45:14.434Z,24.38
2017-10-17T09:46:14.772Z,24.48
2017-10-17T09:47:14.473Z,24.48
2017-10-17T09:48:14.507Z,24.42
2017-10-17T09:49:14.532Z,24.65
2017-10-17T09:50:14.553Z,24.58
2017-10-17T09:51:14.580Z,24.54
2017-10-17T09:52:14.607Z,24.48
2017-10-17T09:53:14.636Z,24.55
2017-10-17T09:54:14.721Z,24.74
2017-10-17T09:55:14.692Z,24.8
2017-10-17T09:56:14.716Z,24.85
2017-10-17T09:57:14.745Z,24.96
2017-10-17T09:58:14.774Z,24.99
2017-10-17T09:59:14.797Z,25.14
2017-10-17T10:00:14.828Z,25.28
2017-10-17T10:01:14.855Z,25.48
2017-10-17T10:02:14.878Z,25.58
2017-10-17T10:03:14.910Z,25.72
2017-10-17T10:04:14.944Z,26.02
2017-10-17T10:05:14.967Z,26.26
2017-10-17T10:06:15.006Z,26.36
2017-10-17T10:07:15.024Z,26.51
2017-10-17T10:08:15.050Z,26.77
2017-10-17T10:09:15.090Z,27.07
2017-10-17T10:10:15.164Z,27.27
2017-10-17T10:11:15.148Z,27.58
2017-10-17T10:12:15.175Z,28.01
2017-10-17T10:13:15.211Z,28.19
2017-10-17T10:14:15.236Z,28.41
2017-10-17T10:15:15.272Z,28.74
2017-10-17T10:16:15.304Z,28.84
2017-10-17T10:17:15.334Z,29.1
2017-10-17T10:18:15.365Z,29.31
2017-10-17T10:19:15.726Z,29.5
2017-10-17T10:20:15.437Z,29.79
2017-10-17T10:21:15.461Z,29.81
2017-10-17T10:22:15.504Z,29.97
2017-10-17T10:23:15.527Z,30.23
2017-10-17T10:24:15.579Z,30.47
2017-10-17T10:25:15.598Z,30.81
2017-10-17T10:26:15.638Z,30.81
2017-10-17T10:27:15.998Z,30.88
2017-10-17T10:28:15.756Z,31.12
2017-10-17T10:29:15.731Z,31.12
2017-10-17T10:30:15.766Z,31.27
2017-10-17T10:31:15.801Z,31.65
2017-10-17T10:32:15.834Z,31.64
2017-10-17T10:33:15.871Z,31.85
2017-10-17T10:34:15.904Z,32.01
2017-10-17T10:35:15.944Z,31.89
2017-10-17T10:36:16.310Z,32.04
2017-10-17T10:37:16.010Z,31.93
2017-10-17T10:38:16.055Z,32.16
2017-10-17T10:39:16.412Z,32.53
2017-10-17T10:40:16.441Z,32.48
2017-10-17T10:41:16.170Z,32.41
2017-10-17T10:42:16.211Z,32.49
2017-10-17T10:43:16.223Z,32.64
2017-10-17T10:44:16.315Z,32.71
2017-10-17T10:45:16.290Z,33
2017-10-17T10:46:16.329Z,33.05
2017-10-17T10:47:16.364Z,33.12
2017-10-17T10:48:16.402Z,33.39
2017-10-17T10:49:16.439Z,33.49
2017-10-17T10:50:16.472Z,33.68
2017-10-17T10:51:16.508Z,33.62
2017-10-17T10:52:16.554Z,33.73
2017-10-17T10:53:16.905Z,33.98
2017-10-17T10:54:16.623Z,33.87
2017-10-17T10:55:16.661Z,34.05
2017-10-17T10:56:16.691Z,34.13
2017-10-17T10:57:16.729Z,34.29
2017-10-17T10:58:16.775Z,34.48
2017-10-17T10:59:16.802Z,34.47
2017-10-17T11:00:16.844Z,34.77
2017-10-17T11:01:16.881Z,34.64
2017-10-17T11:02:16.911Z,34.57
2017-10-17T11:03:16.947Z,34.61
2017-10-17T11:04:16.998Z,34.38
2017-10-17T11:05:17.349Z,34.7
2017-10-17T11:06:17.398Z,34.81
2017-10-17T11:07:17.100Z,35.11
2017-10-17T11:08:17.133Z,35.19
2017-10-17T11:09:17.170Z,35.45
2017-10-17T11:10:17.213Z,35.51
2017-10-17T11:11:17.247Z,35.58
2017-10-17T11:12:17.285Z,35.79
2017-10-17T11:13:17.322Z,35.88
2017-10-17T11:14:17.360Z,35.97
2017-10-17T11:15:17.400Z,35.63
2017-10-17T11:16:17.435Z,35.66
2017-10-17T11:17:17.485Z,35.93
2017-10-17T11:18:17.515Z,36.31
2017-10-17T11:19:17.559Z,36.23
2017-10-17T11:20:17.634Z,36.39
2017-10-17T11:21:17.637Z,36.39
2017-10-17T11:22:17.679Z,36.49
2017-10-17T11:23:17.705Z,36.72
2017-10-17T11:24:17.745Z,36.93
2017-10-17T11:25:17.778Z,37.02
2017-10-17T11:26:17.825Z,37.1
2017-10-17T11:27:18.209Z,37.14
2017-10-17T11:28:17.897Z,37.17
2017-10-17T11:29:17.938Z,37.37
2017-10-17T11:30:17.969Z,37.55
2017-10-17T11:31:18.012Z,37.63
2017-10-17T11:32:18.056Z,37.83
2017-10-17T11:33:18.093Z,37.78
2017-10-17T11:34:18.139Z,38.08
2017-10-17T11:35:18.166Z,38.46
2017-10-17T11:36:18.199Z,38.31
2017-10-17T11:37:18.241Z,38.43
2017-10-17T11:38:18.332Z,38.43
2017-10-17T11:39:18.315Z,38.38
2017-10-17T11:40:18.361Z,38.65
2017-10-17T11:41:18.400Z,38.91
2017-10-17T11:42:18.757Z,38.92
2017-10-17T11:43:18.495Z,39.19
2017-10-17T11:44:18.512Z,39.43
2017-10-17T11:45:18.879Z,39.56
2017-10-17T11:46:18.590Z,39.72
2017-10-17T11:47:18.632Z,39.93
2017-10-17T11:48:18.669Z,40.18
2017-10-17T11:49:18.712Z,40.09
2017-10-17T11:50:18.749Z,39.93
2017-10-17T11:51:18.788Z,39.9
2017-10-17T11:52:18.823Z,40.26
2017-10-17T11:53:18.867Z,40.58
2017-10-17T11:54:18.910Z,40.75
2017-10-17T11:55:19.270Z,40.96
2017-10-17T11:56:19.034Z,41
2017-10-17T11:57:19.024Z,40.44
2017-10-17T11:58:19.389Z,40.65
2017-10-17T11:59:19.107Z,40.65
2017-10-17T12:00:19.475Z,40.4
2017-10-17T12:01:19.186Z,40.34
2017-10-17T12:02:19.225Z,40.51
2017-10-17T12:03:19.277Z,40.77
2017-10-17T12:04:19.307Z,40.69
2017-10-17T12:05:19.352Z,40.8
2017-10-17T12:06:19.717Z,40.77
2017-10-17T12:07:19.444Z,40.9
2017-10-17T12:08:19.799Z,40.73
2017-10-17T12:09:19.510Z,40.78
2017-10-17T12:10:19.550Z,40.87
2017-10-17T12:11:19.667Z,41.33
2017-10-17T12:12:19.634Z,41.56
2017-10-17T12:13:19.671Z,41.53
2017-10-17T12:14:19.713Z,41.71
2017-10-17T12:15:19.756Z,41.83
2017-10-17T12:16:19.792Z,41.71
2017-10-17T12:17:19.836Z,41.63
2017-10-17T12:18:20.218Z,41.55
2017-10-17T12:19:19.913Z,41.44
2017-10-17T12:20:19.954Z,41.55
2017-10-17T12:21:19.994Z,41.75
2017-10-17T12:22:20.035Z,41.9
2017-10-17T12:23:20.075Z,41.7
2017-10-17T12:24:20.116Z,41.77
2017-10-17T12:25:20.156Z,41.83
2017-10-17T12:26:20.246Z,42.2
2017-10-17T12:27:20.245Z,42.29
2017-10-17T12:28:20.280Z,42.53
2017-10-17T12:29:20.318Z,42.48
2017-10-17T12:30:20.362Z,42.41
2017-10-17T12:31:20.429Z,42.32
2017-10-17T12:32:20.455Z,42.67
2017-10-17T12:33:20.486Z,42.97
2017-10-17T12:34:20.527Z,43
2017-10-17T12:35:20.892Z,43.03
2017-10-17T12:36:20.606Z,43.26
2017-10-17T12:37:20.652Z,43.33
2017-10-17T12:38:20.690Z,43.55
2017-10-17T12:39:20.727Z,43.6
2017-10-17T12:40:20.767Z,43.68
2017-10-17T12:41:20.810Z,43.43
2017-10-17T12:42:20.849Z,43.43
2017-10-17T12:43:20.891Z,43.35
2017-10-17T12:44:20.930Z,43.36
2017-10-17T12:45:20.977Z,43.24
2017-10-17T12:46:21.013Z,42.99
2017-10-17T12:47:21.054Z,42.65
2017-10-17T12:48:21.102Z,42.54
2017-10-17T12:49:21.138Z,42.65
2017-10-17T12:50:21.184Z,42.67
2017-10-17T12:51:21.222Z,42.29
2017-10-17T12:52:21.263Z,42.39
2017-10-17T12:53:21.298Z,42.45
2017-10-17T12:54:21.340Z,42.66
2017-10-17T12:55:21.409Z,42.66